createdAt,value
2022-12-27T00:02:10.054Z,99.90
2022-12-27T00:04:38.009Z,99.90
2022-12-27T00:07:06.933Z,99.90
2022-12-27T00:09:35.036Z,99.90
2022-12-27T00:12:03.160Z,99.90
2022-12-27T00:14:31.090Z,99.90
2022-12-27T00:16:59.236Z,99.90
2022-12-27T00:19:27.049Z,99.90
2022-12-27T00:21:55.052Z,99.90
2022-12-27T00:24:22.959Z,99.90
2022-12-27T00:26:51.440Z,99.90
2022-12-27T00:29:19.366Z,99.90
2022-12-27T00:31:48.457Z,99.90
2022-12-27T00:34:16.461Z,99.90
2022-12-27T00:36:44.426Z,99.90
2022-12-27T00:39:12.710Z,99.90
2022-12-27T00:41:40.626Z,99.90
2022-12-27T00:44:08.504Z,99.90
2022-12-27T00:46:36.645Z,99.90
2022-12-27T00:49:04.606Z,99.90
2022-12-27T00:51:32.392Z,99.90
2022-12-27T00:54:01.101Z,99.90
2022-12-27T00:56:29.977Z,99.90
2022-12-27T00:58:59.514Z,99.90
2022-12-27T01:01:29.223Z,99.90
2022-12-27T01:03:58.010Z,99.90
2022-12-27T01:06:29.968Z,99.90
2022-12-27T01:08:57.889Z,99.90
2022-12-27T01:11:27.216Z,99.90
2022-12-27T01:13:56.810Z,99.90
2022-12-27T01:16:26.236Z,99.90
2022-12-27T01:18:54.690Z,99.90
2022-12-27T01:21:23.469Z,99.90
2022-12-27T01:23:51.884Z,99.90
2022-12-27T01:26:20.929Z,99.90
2022-12-27T01:28:49.658Z,99.90
2022-12-27T01:31:22.640Z,99.90
2022-12-27T01:33:54.190Z,99.90
2022-12-27T01:36:23.124Z,99.90
2022-12-27T01:38:51.158Z,99.90
2022-12-27T01:41:40.705Z,99.90
2022-12-27T01:44:27.463Z,99.90
2022-12-27T01:46:55.917Z,99.90
2022-12-27T01:49:23.823Z,99.90
2022-12-27T01:51:51.844Z,99.90
2022-12-27T01:54:20.040Z,99.90
2022-12-27T01:56:48.013Z,99.90
2022-12-27T01:59:16.263Z,99.90
2022-12-27T02:01:44.692Z,99.90
2022-12-27T02:04:15.292Z,99.90
2022-12-27T02:06:43.441Z,99.90
2022-12-27T02:09:17.360Z,99.90
2022-12-27T02:11:52.627Z,99.90
2022-12-27T02:14:37.998Z,99.90
2022-12-27T02:17:12.475Z,99.90
2022-12-27T02:19:40.553Z,99.90
2022-12-27T02:22:17.520Z,99.90
2022-12-27T02:25:01.482Z,99.90
2022-12-27T02:27:32.484Z,99.90
2022-12-27T02:30:03.405Z,99.90
2022-12-27T02:32:31.487Z,99.90
2022-12-27T02:35:02.339Z,99.90
2022-12-27T02:37:32.332Z,99.90
2022-12-27T02:40:21.937Z,99.90
2022-12-27T02:43:19.798Z,99.90
2022-12-27T02:46:12.836Z,99.90
2022-12-27T02:49:10.018Z,99.90
2022-12-27T02:51:56.576Z,99.90
2022-12-27T02:54:24.430Z,99.90
2022-12-27T02:57:10.674Z,99.90
2022-12-27T03:00:19.760Z,99.90
2022-12-27T03:03:23.465Z,99.90
2022-12-27T03:06:11.244Z,99.90
2022-12-27T03:08:45.972Z,99.90
2022-12-27T03:11:34.920Z,99.90
2022-12-27T03:14:34.912Z,99.90
2022-12-27T03:17:06.414Z,99.90
2022-12-27T03:19:57.519Z,99.90
2022-12-27T03:22:46.000Z,99.90
2022-12-27T03:25:30.191Z,99.90
2022-12-27T03:28:21.894Z,99.90
2022-12-27T03:31:10.790Z,99.90
2022-12-27T03:33:40.084Z,99.90
2022-12-27T03:36:29.537Z,99.90
2022-12-27T03:38:57.391Z,99.90
2022-12-27T03:41:46.357Z,99.90
2022-12-27T03:44:26.364Z,99.90
2022-12-27T03:46:56.304Z,99.90
2022-12-27T03:49:27.075Z,99.90
2022-12-27T03:52:16.761Z,99.90
2022-12-27T03:54:46.043Z,99.90
2022-12-27T03:57:15.532Z,99.90
2022-12-27T03:59:43.717Z,99.90
2022-12-27T04:02:12.133Z,99.90
2022-12-27T04:04:40.113Z,99.90
2022-12-27T04:07:08.335Z,99.90
2022-12-27T04:09:54.968Z,99.90
2022-12-27T04:12:41.602Z,99.90
2022-12-27T04:15:28.046Z,99.90
2022-12-27T04:18:14.462Z,99.90
2022-12-27T04:21:00.981Z,99.90
2022-12-27T04:23:47.477Z,99.90
2022-12-27T04:26:34.097Z,99.90
2022-12-27T04:29:20.458Z,99.90
2022-12-27T04:32:08.064Z,99.90
2022-12-27T04:34:45.110Z,99.90
2022-12-27T04:37:14.804Z,99.90
2022-12-27T04:40:03.679Z,99.90
2022-12-27T04:42:50.104Z,99.90
2022-12-27T04:45:36.690Z,99.90
2022-12-27T04:48:23.671Z,99.90
2022-12-27T04:51:10.247Z,99.90
2022-12-27T04:53:57.306Z,99.90
2022-12-27T04:56:25.303Z,99.90
2022-12-27T04:59:11.956Z,99.90
2022-12-27T05:01:58.997Z,99.90
2022-12-27T05:04:27.203Z,99.90
2022-12-27T05:06:55.465Z,99.90
2022-12-27T05:09:42.044Z,99.90
2022-12-27T05:12:31.751Z,99.90
2022-12-27T05:14:59.716Z,99.90
2022-12-27T05:17:27.662Z,99.90
2022-12-27T05:19:55.616Z,99.90
2022-12-27T05:22:42.217Z,99.90
2022-12-27T05:25:30.066Z,99.90
2022-12-27T05:27:58.169Z,99.90
2022-12-27T05:30:26.112Z,99.90
2022-12-27T05:32:56.989Z,99.90
2022-12-27T05:35:24.920Z,99.90
2022-12-27T05:37:55.163Z,99.90
2022-12-27T05:40:23.818Z,99.90
2022-12-27T05:42:51.974Z,99.90
2022-12-27T05:45:20.553Z,99.90
2022-12-27T05:47:48.952Z,99.90
2022-12-27T05:50:17.721Z,99.90
2022-12-27T05:52:50.602Z,99.90
2022-12-27T05:55:18.579Z,99.90
2022-12-27T05:57:46.503Z,99.90
2022-12-27T06:00:14.740Z,99.90
2022-12-27T06:02:42.993Z,99.90
2022-12-27T06:05:11.185Z,99.90
2022-12-27T06:07:39.596Z,99.90
2022-12-27T06:10:08.102Z,99.90
2022-12-27T06:12:36.191Z,99.90
2022-12-27T06:15:05.157Z,99.90
2022-12-27T06:17:33.496Z,99.90
2022-12-27T06:20:01.381Z,99.90
2022-12-27T06:22:29.443Z,99.90
2022-12-27T06:24:57.492Z,99.90
2022-12-27T06:27:25.731Z,99.90
2022-12-27T06:29:53.762Z,99.90
2022-12-27T06:32:21.840Z,99.90
2022-12-27T06:34:49.709Z,99.90
2022-12-27T06:37:18.485Z,99.90
2022-12-27T06:39:46.411Z,99.90
2022-12-27T06:42:14.441Z,99.90
2022-12-27T06:44:42.527Z,99.90
2022-12-27T06:47:10.581Z,99.90
2022-12-27T06:49:38.521Z,99.90
2022-12-27T06:52:06.574Z,99.90
2022-12-27T06:54:34.626Z,99.90
2022-12-27T06:57:02.601Z,99.90
2022-12-27T06:59:30.609Z,99.90
2022-12-27T07:01:58.727Z,99.90
2022-12-27T07:04:26.781Z,99.90
2022-12-27T07:06:54.717Z,99.90
2022-12-27T07:09:22.584Z,99.90
2022-12-27T07:11:50.611Z,99.90
2022-12-27T07:14:18.471Z,99.90
2022-12-27T07:16:46.689Z,99.90
2022-12-27T07:19:14.601Z,99.90
2022-12-27T07:21:43.451Z,99.90
2022-12-27T07:24:11.428Z,99.90
2022-12-27T07:26:39.890Z,99.90
2022-12-27T07:29:07.870Z,99.90
2022-12-27T07:31:35.856Z,99.90
2022-12-27T07:34:04.191Z,99.90
2022-12-27T07:36:34.149Z,99.90
2022-12-27T07:39:02.207Z,99.90
2022-12-27T07:41:30.067Z,99.90
2022-12-27T07:44:00.777Z,99.90
2022-12-27T07:46:28.807Z,99.90
2022-12-27T07:48:57.490Z,99.90
2022-12-27T07:51:26.465Z,99.90
2022-12-27T07:53:54.739Z,99.90
2022-12-27T07:56:26.438Z,99.60
2022-12-27T07:58:55.971Z,98.40
2022-12-27T08:01:24.867Z,97.50
2022-12-27T08:03:53.160Z,96.90
2022-12-27T08:06:26.855Z,96.10
2022-12-27T08:08:58.835Z,95.30
2022-12-27T08:11:27.003Z,94.20
2022-12-27T08:13:55.001Z,93.00
2022-12-27T08:16:24.736Z,92.80
2022-12-27T08:18:56.799Z,93.00
2022-12-27T08:21:24.801Z,92.10
2022-12-27T08:23:52.787Z,91.00
2022-12-27T08:26:21.405Z,90.00
2022-12-27T08:28:49.432Z,87.90
2022-12-27T08:31:17.425Z,85.70
2022-12-27T08:33:45.494Z,84.90
2022-12-27T08:36:54.184Z,83.30
2022-12-27T08:39:01.667Z,81.30
2022-12-27T08:41:29.582Z,79.50
2022-12-27T08:43:57.671Z,78.30
2022-12-27T08:46:26.108Z,76.90
2022-12-27T08:48:54.187Z,75.60
2022-12-27T08:51:32.811Z,74.00
2022-12-27T08:54:06.739Z,72.60
2022-12-27T08:56:34.632Z,70.40
2022-12-27T08:59:02.623Z,64.10
2022-12-27T09:01:30.750Z,63.50
2022-12-27T09:03:58.711Z,60.50
2022-12-27T09:06:28.042Z,59.60
2022-12-27T09:08:56.661Z,58.00
2022-12-27T09:11:26.590Z,57.80
2022-12-27T09:13:55.143Z,56.80
2022-12-27T09:16:24.611Z,55.50
2022-12-27T09:18:53.508Z,54.00
2022-12-27T09:21:22.460Z,53.40
2022-12-27T09:23:50.908Z,53.10
2022-12-27T09:26:20.050Z,54.00
2022-12-27T09:28:48.723Z,51.30
2022-12-27T09:31:17.802Z,50.50
2022-12-27T09:33:46.196Z,50.30
2022-12-27T09:36:21.594Z,50.60
2022-12-27T09:38:49.744Z,49.30
2022-12-27T09:41:37.714Z,49.20
2022-12-27T09:44:08.890Z,48.60
2022-12-27T09:46:43.108Z,46.30
2022-12-27T09:49:13.772Z,46.00
2022-12-27T09:52:01.971Z,45.90
2022-12-27T09:54:33.505Z,45.30
2022-12-27T09:57:19.584Z,43.70
2022-12-27T09:59:50.118Z,44.40
2022-12-27T10:02:23.014Z,43.70
2022-12-27T10:05:18.992Z,42.70
2022-12-27T10:07:43.502Z,43.40
2022-12-27T10:10:17.746Z,45.00
2022-12-27T10:12:48.658Z,44.50
2022-12-27T10:15:26.912Z,44.30
2022-12-27T10:18:00.965Z,44.10
2022-12-27T10:20:35.329Z,42.70
2022-12-27T10:23:10.609Z,42.50
2022-12-27T10:25:39.764Z,42.80
2022-12-27T10:28:31.163Z,42.70
2022-12-27T10:31:02.645Z,42.70
2022-12-27T10:33:32.742Z,42.60
2022-12-27T10:36:03.275Z,43.50
2022-12-27T10:38:33.439Z,43.80
2022-12-27T10:41:20.086Z,42.90
2022-12-27T10:43:50.917Z,41.70
2022-12-27T10:46:19.699Z,43.90
2022-12-27T10:49:20.000Z,45.40
2022-12-27T10:51:45.719Z,45.50
2022-12-27T10:54:15.315Z,43.30
2022-12-27T10:56:44.574Z,44.50
2022-12-27T10:59:13.904Z,45.90
2022-12-27T11:01:42.039Z,48.20
2022-12-27T11:04:20.725Z,48.10
2022-12-27T11:07:13.905Z,47.90
2022-12-27T11:09:50.131Z,48.80
2022-12-27T11:12:19.234Z,49.10
2022-12-27T11:15:16.119Z,51.90
2022-12-27T11:17:45.368Z,53.70
2022-12-27T11:20:22.539Z,54.40
2022-12-27T11:23:04.263Z,54.30
2022-12-27T11:25:32.423Z,55.80
2022-12-27T11:28:21.037Z,56.90
2022-12-27T11:31:00.313Z,54.60
2022-12-27T11:33:36.433Z,52.80
2022-12-27T11:36:05.187Z,48.80
2022-12-27T11:38:34.139Z,47.20
2022-12-27T11:41:02.126Z,48.70
2022-12-27T11:43:32.798Z,50.40
2022-12-27T11:46:01.033Z,52.00
2022-12-27T11:48:31.416Z,54.90
2022-12-27T11:51:02.585Z,56.00
2022-12-27T11:53:30.402Z,56.80
2022-12-27T11:56:04.574Z,56.70
2022-12-27T11:58:47.864Z,56.50
2022-12-27T12:01:42.365Z,58.00
2022-12-27T12:04:22.454Z,59.20
2022-12-27T12:06:59.734Z,60.30
2022-12-27T12:09:37.993Z,61.20
2022-12-27T12:12:23.228Z,61.90
2022-12-27T12:15:10.091Z,60.90
2022-12-27T12:18:01.361Z,62.10
2022-12-27T12:20:55.706Z,62.70
2022-12-27T12:23:42.452Z,63.60
2022-12-27T12:26:13.556Z,64.10
2022-12-27T12:29:00.958Z,64.90
2022-12-27T12:31:45.250Z,65.10
2022-12-27T12:34:16.117Z,64.90
2022-12-27T12:37:02.740Z,64.50
2022-12-27T12:39:30.860Z,64.70
2022-12-27T12:42:01.801Z,64.40
2022-12-27T12:44:51.174Z,64.60
2022-12-27T12:47:37.601Z,64.60
2022-12-27T12:50:13.433Z,65.60
2022-12-27T12:53:00.134Z,65.40
2022-12-27T12:55:46.718Z,66.10
2022-12-27T12:58:33.403Z,66.50
2022-12-27T13:01:01.351Z,67.30
2022-12-27T13:03:35.687Z,67.10
2022-12-27T13:06:18.999Z,67.70
2022-12-27T13:09:01.046Z,67.10
2022-12-27T13:11:40.243Z,69.00
2022-12-27T13:14:26.784Z,70.30
2022-12-27T13:16:54.862Z,70.50
2022-12-27T13:19:22.740Z,71.90
2022-12-27T13:22:02.959Z,72.90
2022-12-27T13:24:45.840Z,72.80
2022-12-27T13:27:16.574Z,73.50
2022-12-27T13:30:04.719Z,74.40
2022-12-27T13:32:34.965Z,75.00
2022-12-27T13:35:08.274Z,74.90
2022-12-27T13:37:54.458Z,75.30
2022-12-27T13:40:34.810Z,75.60
2022-12-27T13:43:15.184Z,76.20
2022-12-27T13:45:54.042Z,76.50
2022-12-27T13:48:25.007Z,77.00
2022-12-27T13:50:56.817Z,77.50
2022-12-27T13:53:38.964Z,77.70
2022-12-27T13:56:53.535Z,78.50
2022-12-27T13:59:25.719Z,78.80
2022-12-27T14:01:56.808Z,79.40
2022-12-27T14:04:33.597Z,79.90
2022-12-27T14:07:24.089Z,80.20
2022-12-27T14:10:10.513Z,80.80
2022-12-27T14:12:57.413Z,81.20
2022-12-27T14:15:35.814Z,81.30
2022-12-27T14:18:09.853Z,81.80
2022-12-27T14:20:37.817Z,81.60
2022-12-27T14:23:19.088Z,82.20
2022-12-27T14:26:03.207Z,82.80
2022-12-27T14:29:03.637Z,83.10
2022-12-27T14:31:34.672Z,83.70
2022-12-27T14:34:28.965Z,84.20
2022-12-27T14:37:09.104Z,84.60
2022-12-27T14:39:56.554Z,84.90
2022-12-27T14:42:30.678Z,85.10
2022-12-27T14:45:18.352Z,85.40
2022-12-27T14:48:01.816Z,85.90
2022-12-27T14:50:38.999Z,86.20
2022-12-27T14:53:33.486Z,86.60
2022-12-27T14:56:02.262Z,87.20
2022-12-27T14:58:35.388Z,87.30
2022-12-27T15:01:06.071Z,87.90
2022-12-27T15:03:54.765Z,88.20
2022-12-27T15:06:44.215Z,88.60
2022-12-27T15:09:38.685Z,89.00
2022-12-27T15:12:15.098Z,89.60
2022-12-27T15:15:01.672Z,90.00
2022-12-27T15:17:48.443Z,90.00
2022-12-27T15:20:25.538Z,90.20
2022-12-27T15:23:08.776Z,90.40
2022-12-27T15:25:50.170Z,90.50
2022-12-27T15:28:38.293Z,90.80
2022-12-27T15:31:12.500Z,90.90
2022-12-27T15:33:40.384Z,90.90
2022-12-27T15:36:31.743Z,90.90
2022-12-27T15:38:59.898Z,91.00
2022-12-27T15:41:35.879Z,91.20
2022-12-27T15:44:06.701Z,91.30
2022-12-27T15:46:50.093Z,91.40
2022-12-27T15:49:28.378Z,91.50
2022-12-27T15:51:59.486Z,91.60
2022-12-27T15:54:53.486Z,91.80
2022-12-27T15:57:40.577Z,91.90
2022-12-27T16:00:14.911Z,92.10
2022-12-27T16:02:49.224Z,92.30
2022-12-27T16:05:20.531Z,92.40
2022-12-27T16:07:50.879Z,92.50
2022-12-27T16:10:31.054Z,92.60
2022-12-27T16:13:00.894Z,92.50
2022-12-27T16:15:35.069Z,92.50
2022-12-27T16:18:03.648Z,92.60
2022-12-27T16:20:32.593Z,92.70
2022-12-27T16:23:02.537Z,93.00
2022-12-27T16:25:32.383Z,93.10
2022-12-27T16:28:07.952Z,93.30
2022-12-27T16:30:40.895Z,93.60
2022-12-27T16:33:21.081Z,93.90
2022-12-27T16:36:07.752Z,93.90
2022-12-27T16:38:37.482Z,94.10
2022-12-27T16:41:15.730Z,94.30
2022-12-27T16:44:03.484Z,94.30
2022-12-27T16:46:51.935Z,94.60
2022-12-27T16:49:38.435Z,94.80
2022-12-27T16:52:06.497Z,94.80
2022-12-27T16:54:46.213Z,95.00
2022-12-27T16:57:40.716Z,95.10
2022-12-27T17:00:11.782Z,95.60
2022-12-27T17:02:46.981Z,95.20
2022-12-27T17:05:14.872Z,95.60
2022-12-27T17:07:49.009Z,95.90
2022-12-27T17:10:29.130Z,95.90
2022-12-27T17:13:04.252Z,96.30
2022-12-27T17:15:32.572Z,96.40
2022-12-27T17:18:06.946Z,96.60
2022-12-27T17:20:36.993Z,96.60
2022-12-27T17:23:04.940Z,96.70
2022-12-27T17:25:45.161Z,97.00
2022-12-27T17:28:23.194Z,97.20
2022-12-27T17:31:20.724Z,97.20
2022-12-27T17:34:21.182Z,97.30
2022-12-27T17:36:57.208Z,97.30
2022-12-27T17:39:36.014Z,97.50
2022-12-27T17:42:28.911Z,97.50
2022-12-27T17:44:56.715Z,97.40
2022-12-27T17:47:49.355Z,97.50
2022-12-27T17:50:20.354Z,97.50
2022-12-27T17:53:27.089Z,97.50
2022-12-27T17:56:21.202Z,97.60
2022-12-27T17:58:49.109Z,97.50
2022-12-27T18:01:17.498Z,97.80
2022-12-27T18:03:47.064Z,98.00
2022-12-27T18:06:18.965Z,97.90
2022-12-27T18:08:50.275Z,97.80
2022-12-27T18:11:24.868Z,97.90
2022-12-27T18:13:59.273Z,97.90
2022-12-27T18:16:37.151Z,97.80
2022-12-27T18:19:05.226Z,97.80
2022-12-27T18:21:33.273Z,97.90
2022-12-27T18:24:01.265Z,97.90
2022-12-27T18:26:34.813Z,97.80
2022-12-27T18:29:03.552Z,98.00
2022-12-27T18:31:35.700Z,98.10
2022-12-27T18:34:08.844Z,98.20
2022-12-27T18:36:40.325Z,98.10
2022-12-27T18:39:11.242Z,98.30
2022-12-27T18:41:43.611Z,98.40
2022-12-27T18:44:15.111Z,98.40
2022-12-27T18:46:43.107Z,98.40
2022-12-27T18:49:22.463Z,98.30
2022-12-27T18:51:50.523Z,98.40
2022-12-27T18:54:23.228Z,98.50
2022-12-27T18:56:53.658Z,98.50
2022-12-27T18:59:23.363Z,98.40
2022-12-27T19:01:51.529Z,98.40
2022-12-27T19:04:24.469Z,98.50
2022-12-27T19:07:01.573Z,98.60
2022-12-27T19:09:35.891Z,98.40
2022-12-27T19:12:05.616Z,98.30
2022-12-27T19:14:44.363Z,98.50
2022-12-27T19:17:20.062Z,98.40
2022-12-27T19:19:49.614Z,98.30
2022-12-27T19:22:46.873Z,98.30
2022-12-27T19:25:21.093Z,98.10
2022-12-27T19:28:07.883Z,98.00
2022-12-27T19:30:38.838Z,98.40
2022-12-27T19:33:10.131Z,98.20
2022-12-27T19:35:39.775Z,98.40
2022-12-27T19:38:07.735Z,98.50
2022-12-27T19:40:35.653Z,98.50
2022-12-27T19:43:04.124Z,98.80
2022-12-27T19:45:31.996Z,99.30
2022-12-27T19:47:59.813Z,99.40
2022-12-27T19:50:27.858Z,99.40
2022-12-27T19:52:55.841Z,99.70
2022-12-27T19:55:26.113Z,99.90
2022-12-27T19:57:54.298Z,99.90
2022-12-27T20:00:23.944Z,99.90
2022-12-27T20:02:51.992Z,99.90
2022-12-27T20:06:14.394Z,99.90
2022-12-27T20:08:25.950Z,99.90
2022-12-27T20:10:54.792Z,99.90
2022-12-27T20:13:23.495Z,99.90
2022-12-27T20:15:52.703Z,99.90
2022-12-27T20:18:21.370Z,99.90
2022-12-27T20:20:49.541Z,99.90
2022-12-27T20:23:17.462Z,99.90
2022-12-27T20:25:47.037Z,99.90
2022-12-27T20:28:15.894Z,99.90
2022-12-27T20:30:44.853Z,99.90
2022-12-27T20:33:13.454Z,99.90
2022-12-27T20:35:41.398Z,99.90
2022-12-27T20:38:10.696Z,99.90
2022-12-27T20:40:40.778Z,99.90
2022-12-27T20:43:08.663Z,99.90
2022-12-27T20:45:37.153Z,99.90
2022-12-27T20:48:05.782Z,99.90
2022-12-27T20:50:33.676Z,99.90
2022-12-27T20:53:01.735Z,99.90
2022-12-27T20:55:30.069Z,99.90
2022-12-27T20:57:59.622Z,99.90
2022-12-27T21:00:27.863Z,99.90
2022-12-27T21:02:55.958Z,99.90
2022-12-27T21:05:24.025Z,99.90
2022-12-27T21:07:52.094Z,99.90
2022-12-27T21:10:20.212Z,99.90
2022-12-27T21:12:48.260Z,99.90
2022-12-27T21:15:16.157Z,99.90
2022-12-27T21:17:44.144Z,99.90
2022-12-27T21:20:13.729Z,99.90
2022-12-27T21:22:41.715Z,99.90
2022-12-27T21:25:09.721Z,99.90
2022-12-27T21:27:37.715Z,99.90
2022-12-27T21:30:05.933Z,99.90
2022-12-27T21:32:34.022Z,99.90
2022-12-27T21:35:01.909Z,99.90
2022-12-27T21:37:29.915Z,99.90
2022-12-27T21:39:57.816Z,99.90
2022-12-27T21:42:25.717Z,99.90
2022-12-27T21:44:53.813Z,99.90
2022-12-27T21:47:21.843Z,99.90
2022-12-27T21:49:49.856Z,99.90
2022-12-27T21:52:17.723Z,99.90
2022-12-27T21:54:45.677Z,99.90
2022-12-27T21:57:13.536Z,99.90
2022-12-27T21:59:41.565Z,99.90
2022-12-27T22:02:09.881Z,99.90
2022-12-27T22:04:37.979Z,99.90
2022-12-27T22:07:05.847Z,99.90
2022-12-27T22:09:33.839Z,99.90
2022-12-27T22:12:01.731Z,99.90
2022-12-27T22:14:36.836Z,99.90
2022-12-27T22:17:05.257Z,99.90
2022-12-27T22:19:33.109Z,99.90
2022-12-27T22:22:00.995Z,99.90
2022-12-27T22:24:28.976Z,99.90
2022-12-27T22:26:56.854Z,99.90
2022-12-27T22:29:25.153Z,99.90
2022-12-27T22:31:53.128Z,99.90
2022-12-27T22:34:21.309Z,99.90
2022-12-27T22:36:52.900Z,99.90
2022-12-27T22:39:20.801Z,99.90
2022-12-27T22:41:49.790Z,99.90
2022-12-27T22:44:17.767Z,99.90
2022-12-27T22:49:35.220Z,99.90
2022-12-27T22:52:03.095Z,99.90
2022-12-27T22:55:03.210Z,99.90
2022-12-27T22:57:18.996Z,99.90
2022-12-27T22:59:47.068Z,99.90
2022-12-27T23:02:15.193Z,99.90
2022-12-27T23:04:43.239Z,99.90
2022-12-27T23:07:11.259Z,99.90
2022-12-27T23:09:43.129Z,99.90
2022-12-27T23:12:12.176Z,99.90
2022-12-27T23:14:40.513Z,99.90
2022-12-27T23:17:08.375Z,99.90
2022-12-27T23:19:36.455Z,99.90
2022-12-27T23:22:04.455Z,99.90
2022-12-27T23:24:32.481Z,99.90
2022-12-27T23:27:00.586Z,99.90
2022-12-27T23:29:28.442Z,99.90
2022-12-27T23:31:56.442Z,99.90
2022-12-27T23:34:28.812Z,99.90
2022-12-27T23:37:00.478Z,99.90
2022-12-27T23:39:28.951Z,99.90
2022-12-27T23:41:56.818Z,99.90
2022-12-27T23:44:33.280Z,99.90
2022-12-27T23:47:04.065Z,99.90
2022-12-27T23:49:32.454Z,99.90
2022-12-27T23:52:00.315Z,99.90
2022-12-27T23:54:28.400Z,99.90
2022-12-27T23:56:56.667Z,99.90
2022-12-27T23:59:24.960Z,99.90
